sensor_id;sensor_type;location;lat;lon;timestamp;P1;durP1;ratioP1;P2;durP2;ratioP2
74344;SDS011;62776;50.518;6.732;2023-11-21T00:00:56;30.48;;;7.63;;
74344;SDS011;62776;50.518;6.732;2023-11-21T00:03:44;10.82;;;2.88;;
74344;SDS011;62776;50.518;6.732;2023-11-21T00:06:31;10.13;;;4.03;;
74344;SDS011;62776;50.518;6.732;2023-11-21T00:09:23;7.97;;;3.63;;
74344;SDS011;62776;50.518;6.732;2023-11-21T00:12:15;3.10;;;2.50;;
74344;SDS011;62776;50.518;6.732;2023-11-21T00:15:10;3.10;;;2.67;;
74344;SDS011;62776;50.518;6.732;2023-11-21T00:17:59;2.33;;;2.10;;
74344;SDS011;62776;50.518;6.732;2023-11-21T00:20:45;2.63;;;2.42;;
74344;SDS011;62776;50.518;6.732;2023-11-21T00:23:37;2.50;;;2.30;;
74344;SDS011;62776;50.518;6.732;2023-11-21T00:26:23;2.35;;;2.15;;
74344;SDS011;62776;50.518;6.732;2023-11-21T00:29:10;2.30;;;2.00;;
74344;SDS011;62776;50.518;6.732;2023-11-21T00:31:58;1.70;;;1.60;;
74344;SDS011;62776;50.518;6.732;2023-11-21T00:34:44;3.10;;;1.70;;
74344;SDS011;62776;50.518;6.732;2023-11-21T00:37:31;3.17;;;2.22;;
74344;SDS011;62776;50.518;6.732;2023-11-21T00:40:17;2.60;;;2.15;;
74344;SDS011;62776;50.518;6.732;2023-11-21T00:43:06;3.17;;;2.50;;
74344;SDS011;62776;50.518;6.732;2023-11-21T00:45:52;5.30;;;2.83;;
74344;SDS011;62776;50.518;6.732;2023-11-21T00:48:38;2.10;;;1.90;;
74344;SDS011;62776;50.518;6.732;2023-11-21T00:51:24;2.78;;;2.30;;
74344;SDS011;62776;50.518;6.732;2023-11-21T00:54:11;3.22;;;2.70;;
74344;SDS011;62776;50.518;6.732;2023-11-21T00:56:58;3.10;;;2.60;;
74344;SDS011;62776;50.518;6.732;2023-11-21T00:59:53;2.65;;;2.45;;
74344;SDS011;62776;50.518;6.732;2023-11-21T01:02:43;3.85;;;3.17;;
74344;SDS011;62776;50.518;6.732;2023-11-21T01:05:39;5.85;;;3.58;;
74344;SDS011;62776;50.518;6.732;2023-11-21T01:08:39;5.55;;;4.50;;
74344;SDS011;62776;50.518;6.732;2023-11-21T01:11:38;6.40;;;4.70;;
74344;SDS011;62776;50.518;6.732;2023-11-21T01:14:54;4.80;;;3.92;;
74344;SDS011;62776;50.518;6.732;2023-11-21T01:17:40;7.05;;;4.57;;
74344;SDS011;62776;50.518;6.732;2023-11-21T01:20:29;5.15;;;4.65;;
74344;SDS011;62776;50.518;6.732;2023-11-21T01:23:30;5.57;;;4.70;;
74344;SDS011;62776;50.518;6.732;2023-11-21T01:26:16;4.28;;;3.88;;
74344;SDS011;62776;50.518;6.732;2023-11-21T01:29:36;5.33;;;4.00;;
74344;SDS011;62776;50.518;6.732;2023-11-21T01:32:33;4.07;;;3.67;;
74344;SDS011;62776;50.518;6.732;2023-11-21T01:35:22;4.45;;;4.05;;
74344;SDS011;62776;50.518;6.732;2023-11-21T01:38:09;5.47;;;3.72;;
74344;SDS011;62776;50.518;6.732;2023-11-21T01:41:02;5.65;;;4.53;;
74344;SDS011;62776;50.518;6.732;2023-11-21T01:43:49;6.68;;;5.32;;
74344;SDS011;62776;50.518;6.732;2023-11-21T01:46:43;7.40;;;4.65;;
74344;SDS011;62776;50.518;6.732;2023-11-21T01:49:35;4.55;;;4.05;;
74344;SDS011;62776;50.518;6.732;2023-11-21T01:52:24;5.70;;;4.32;;
74344;SDS011;62776;50.518;6.732;2023-11-21T01:55:11;5.60;;;4.38;;
74344;SDS011;62776;50.518;6.732;2023-11-21T01:58:21;7.00;;;5.40;;
74344;SDS011;62776;50.518;6.732;2023-11-21T02:01:11;6.00;;;4.70;;
74344;SDS011;62776;50.518;6.732;2023-11-21T02:04:17;10.68;;;6.18;;
74344;SDS011;62776;50.518;6.732;2023-11-21T02:07:05;11.43;;;6.68;;
74344;SDS011;62776;50.518;6.732;2023-11-21T02:09:53;7.93;;;6.00;;
74344;SDS011;62776;50.518;6.732;2023-11-21T02:12:44;8.60;;;5.30;;
74344;SDS011;62776;50.518;6.732;2023-11-21T02:15:33;7.10;;;5.22;;
74344;SDS011;62776;50.518;6.732;2023-11-21T02:18:23;10.60;;;6.40;;
74344;SDS011;62776;50.518;6.732;2023-11-21T02:21:14;9.18;;;5.70;;
74344;SDS011;62776;50.518;6.732;2023-11-21T02:24:04;12.57;;;6.55;;
74344;SDS011;62776;50.518;6.732;2023-11-21T02:26:51;9.30;;;6.43;;
74344;SDS011;62776;50.518;6.732;2023-11-21T02:29:37;11.60;;;7.55;;
74344;SDS011;62776;50.518;6.732;2023-11-21T02:32:27;16.75;;;7.85;;
74344;SDS011;62776;50.518;6.732;2023-11-21T02:35:16;15.90;;;8.52;;
74344;SDS011;62776;50.518;6.732;2023-11-21T02:38:03;8.88;;;6.70;;
74344;SDS011;62776;50.518;6.732;2023-11-21T02:40:49;5.20;;;4.28;;
74344;SDS011;62776;50.518;6.732;2023-11-21T02:43:36;6.90;;;5.38;;
74344;SDS011;62776;50.518;6.732;2023-11-21T02:46:23;6.65;;;5.28;;
74344;SDS011;62776;50.518;6.732;2023-11-21T02:49:12;9.63;;;6.50;;
74344;SDS011;62776;50.518;6.732;2023-11-21T02:52:02;6.93;;;5.95;;
74344;SDS011;62776;50.518;6.732;2023-11-21T02:54:56;7.82;;;6.47;;
74344;SDS011;62776;50.518;6.732;2023-11-21T02:57:47;10.95;;;8.02;;
74344;SDS011;62776;50.518;6.732;2023-11-21T03:01:05;8.65;;;6.40;;
74344;SDS011;62776;50.518;6.732;2023-11-21T03:03:53;7.55;;;5.88;;
74344;SDS011;62776;50.518;6.732;2023-11-21T03:06:50;7.50;;;5.90;;
74344;SDS011;62776;50.518;6.732;2023-11-21T03:10:06;9.35;;;6.93;;
74344;SDS011;62776;50.518;6.732;2023-11-21T03:12:54;10.82;;;5.90;;
74344;SDS011;62776;50.518;6.732;2023-11-21T03:15:43;8.27;;;6.10;;
74344;SDS011;62776;50.518;6.732;2023-11-21T03:18:42;9.38;;;7.05;;
74344;SDS011;62776;50.518;6.732;2023-11-21T03:21:32;24.35;;;11.18;;
74344;SDS011;62776;50.518;6.732;2023-11-21T03:24:19;10.52;;;6.90;;
74344;SDS011;62776;50.518;6.732;2023-11-21T03:27:09;17.73;;;9.98;;
74344;SDS011;62776;50.518;6.732;2023-11-21T03:29:58;13.32;;;7.72;;
74344;SDS011;62776;50.518;6.732;2023-11-21T03:32:49;7.22;;;5.38;;
74344;SDS011;62776;50.518;6.732;2023-11-21T03:35:37;10.85;;;5.43;;
74344;SDS011;62776;50.518;6.732;2023-11-21T03:38:31;13.60;;;8.10;;
74344;SDS011;62776;50.518;6.732;2023-11-21T03:41:29;7.47;;;5.88;;
74344;SDS011;62776;50.518;6.732;2023-11-21T03:44:18;8.55;;;5.63;;
74344;SDS011;62776;50.518;6.732;2023-11-21T03:47:07;8.65;;;6.10;;
74344;SDS011;62776;50.518;6.732;2023-11-21T03:49:54;11.57;;;7.40;;
74344;SDS011;62776;50.518;6.732;2023-11-21T03:52:43;7.00;;;4.57;;
74344;SDS011;62776;50.518;6.732;2023-11-21T03:55:33;5.95;;;5.05;;
74344;SDS011;62776;50.518;6.732;2023-11-21T03:58:22;6.63;;;5.25;;
74344;SDS011;62776;50.518;6.732;2023-11-21T04:01:09;6.57;;;4.50;;
74344;SDS011;62776;50.518;6.732;2023-11-21T04:04:05;11.15;;;6.22;;
74344;SDS011;62776;50.518;6.732;2023-11-21T04:06:54;6.18;;;4.82;;
74344;SDS011;62776;50.518;6.732;2023-11-21T04:09:44;5.63;;;4.65;;
74344;SDS011;62776;50.518;6.732;2023-11-21T04:12:30;7.22;;;4.70;;
74344;SDS011;62776;50.518;6.732;2023-11-21T04:15:17;5.93;;;4.85;;
74344;SDS011;62776;50.518;6.732;2023-11-21T04:18:03;10.20;;;5.75;;
74344;SDS011;62776;50.518;6.732;2023-11-21T04:20:50;5.88;;;4.85;;
74344;SDS011;62776;50.518;6.732;2023-11-21T04:23:43;5.40;;;4.05;;
74344;SDS011;62776;50.518;6.732;2023-11-21T04:26:37;5.13;;;3.58;;
74344;SDS011;62776;50.518;6.732;2023-11-21T04:29:29;5.93;;;4.20;;
74344;SDS011;62776;50.518;6.732;2023-11-21T04:32:16;6.50;;;4.60;;
74344;SDS011;62776;50.518;6.732;2023-11-21T04:35:02;8.10;;;4.97;;
74344;SDS011;62776;50.518;6.732;2023-11-21T04:37:51;6.32;;;4.80;;
74344;SDS011;62776;50.518;6.732;2023-11-21T04:40:44;5.25;;;4.47;;
74344;SDS011;62776;50.518;6.732;2023-11-21T04:43:30;9.07;;;5.28;;
74344;SDS011;62776;50.518;6.732;2023-11-21T04:46:17;9.18;;;6.22;;
74344;SDS011;62776;50.518;6.732;2023-11-21T04:49:06;5.45;;;4.25;;
74344;SDS011;62776;50.518;6.732;2023-11-21T04:51:54;8.00;;;5.25;;
74344;SDS011;62776;50.518;6.732;2023-11-21T04:54:44;6.15;;;5.18;;
74344;SDS011;62776;50.518;6.732;2023-11-21T04:57:31;10.57;;;5.75;;
74344;SDS011;62776;50.518;6.732;2023-11-21T05:00:17;7.82;;;5.47;;
74344;SDS011;62776;50.518;6.732;2023-11-21T05:03:04;9.55;;;5.57;;
74344;SDS011;62776;50.518;6.732;2023-11-21T05:05:52;7.03;;;5.15;;
74344;SDS011;62776;50.518;6.732;2023-11-21T05:08:38;7.40;;;5.88;;
74344;SDS011;62776;50.518;6.732;2023-11-21T05:14:52;5.38;;;4.70;;
74344;SDS011;62776;50.518;6.732;2023-11-21T05:17:46;4.07;;;3.67;;
74344;SDS011;62776;50.518;6.732;2023-11-21T05:20:37;7.38;;;6.03;;
74344;SDS011;62776;50.518;6.732;2023-11-21T05:23:24;5.57;;;4.80;;
74344;SDS011;62776;50.518;6.732;2023-11-21T05:26:11;5.05;;;4.55;;
74344;SDS011;62776;50.518;6.732;2023-11-21T05:29:03;6.57;;;4.82;;
74344;SDS011;62776;50.518;6.732;2023-11-21T05:31:52;4.80;;;4.30;;
74344;SDS011;62776;50.518;6.732;2023-11-21T05:34:39;4.43;;;3.97;;
74344;SDS011;62776;50.518;6.732;2023-11-21T05:37:26;5.78;;;4.82;;
74344;SDS011;62776;50.518;6.732;2023-11-21T05:40:13;4.10;;;3.70;;
74344;SDS011;62776;50.518;6.732;2023-11-21T05:43:03;4.05;;;3.63;;
74344;SDS011;62776;50.518;6.732;2023-11-21T05:45:55;4.68;;;4.13;;
74344;SDS011;62776;50.518;6.732;2023-11-21T05:48:44;5.80;;;4.30;;
74344;SDS011;62776;50.518;6.732;2023-11-21T05:51:33;4.70;;;4.10;;
74344;SDS011;62776;50.518;6.732;2023-11-21T05:57:11;4.18;;;3.78;;
74344;SDS011;62776;50.518;6.732;2023-11-21T05:59:57;4.40;;;3.75;;
74344;SDS011;62776;50.518;6.732;2023-11-21T06:02:44;4.57;;;4.13;;
74344;SDS011;62776;50.518;6.732;2023-11-21T06:05:32;4.20;;;3.83;;
74344;SDS011;62776;50.518;6.732;2023-11-21T06:08:21;3.20;;;2.90;;
74344;SDS011;62776;50.518;6.732;2023-11-21T06:11:07;4.38;;;3.97;;
74344;SDS011;62776;50.518;6.732;2023-11-21T06:13:56;5.03;;;4.40;;
74344;SDS011;62776;50.518;6.732;2023-11-21T06:16:47;4.13;;;3.72;;
74344;SDS011;62776;50.518;6.732;2023-11-21T06:19:36;5.15;;;3.55;;
74344;SDS011;62776;50.518;6.732;2023-11-21T06:22:22;3.55;;;3.25;;
74344;SDS011;62776;50.518;6.732;2023-11-21T06:25:09;5.63;;;3.85;;
74344;SDS011;62776;50.518;6.732;2023-11-21T06:27:58;4.38;;;3.65;;
74344;SDS011;62776;50.518;6.732;2023-11-21T06:30:47;5.43;;;4.40;;
74344;SDS011;62776;50.518;6.732;2023-11-21T06:33:35;5.65;;;4.38;;
74344;SDS011;62776;50.518;6.732;2023-11-21T06:36:22;3.28;;;3.03;;
74344;SDS011;62776;50.518;6.732;2023-11-21T06:39:18;3.25;;;2.95;;
74344;SDS011;62776;50.518;6.732;2023-11-21T06:42:07;4.72;;;3.63;;
74344;SDS011;62776;50.518;6.732;2023-11-21T06:44:54;4.28;;;3.88;;
74344;SDS011;62776;50.518;6.732;2023-11-21T06:47:44;3.63;;;3.22;;
74344;SDS011;62776;50.518;6.732;2023-11-21T06:50:30;6.22;;;4.30;;
74344;SDS011;62776;50.518;6.732;2023-11-21T06:53:17;3.15;;;2.53;;
74344;SDS011;62776;50.518;6.732;2023-11-21T06:56:04;4.18;;;3.63;;
74344;SDS011;62776;50.518;6.732;2023-11-21T06:59:00;4.72;;;3.72;;
74344;SDS011;62776;50.518;6.732;2023-11-21T07:01:48;3.65;;;3.25;;
74344;SDS011;62776;50.518;6.732;2023-11-21T07:04:35;5.47;;;4.18;;
74344;SDS011;62776;50.518;6.732;2023-11-21T07:07:24;3.38;;;3.03;;
74344;SDS011;62776;50.518;6.732;2023-11-21T07:10:14;3.83;;;3.08;;
74344;SDS011;62776;50.518;6.732;2023-11-21T07:23:35;3.65;;;3.33;;
74344;SDS011;62776;50.518;6.732;2023-11-21T07:26:22;3.45;;;3.15;;
74344;SDS011;62776;50.518;6.732;2023-11-21T07:29:10;4.78;;;3.60;;
74344;SDS011;62776;50.518;6.732;2023-11-21T07:32:00;4.15;;;3.67;;
74344;SDS011;62776;50.518;6.732;2023-11-21T07:34:46;4.65;;;3.85;;
74344;SDS011;62776;50.518;6.732;2023-11-21T07:37:33;5.13;;;3.42;;
74344;SDS011;62776;50.518;6.732;2023-11-21T07:40:19;4.63;;;3.72;;
74344;SDS011;62776;50.518;6.732;2023-11-21T07:43:07;4.13;;;3.55;;
74344;SDS011;62776;50.518;6.732;2023-11-21T07:45:55;4.18;;;3.33;;
74344;SDS011;62776;50.518;6.732;2023-11-21T07:48:42;6.47;;;4.57;;
74344;SDS011;62776;50.518;6.732;2023-11-21T07:51:29;4.32;;;3.88;;
74344;SDS011;62776;50.518;6.732;2023-11-21T07:54:15;3.92;;;3.15;;
74344;SDS011;62776;50.518;6.732;2023-11-21T07:57:02;4.15;;;3.65;;
74344;SDS011;62776;50.518;6.732;2023-11-21T07:59:49;4.18;;;3.47;;
74344;SDS011;62776;50.518;6.732;2023-11-21T08:02:39;4.45;;;3.80;;
74344;SDS011;62776;50.518;6.732;2023-11-21T08:05:27;5.53;;;3.78;;
74344;SDS011;62776;50.518;6.732;2023-11-21T08:08:14;4.82;;;3.33;;
74344;SDS011;62776;50.518;6.732;2023-11-21T08:11:04;5.03;;;3.58;;
74344;SDS011;62776;50.518;6.732;2023-11-21T08:13:50;5.55;;;3.83;;
74344;SDS011;62776;50.518;6.732;2023-11-21T08:16:38;3.67;;;3.30;;
74344;SDS011;62776;50.518;6.732;2023-11-21T08:19:31;3.83;;;3.47;;
74344;SDS011;62776;50.518;6.732;2023-11-21T08:22:17;4.47;;;4.07;;
74344;SDS011;62776;50.518;6.732;2023-11-21T08:25:07;5.88;;;4.20;;
74344;SDS011;62776;50.518;6.732;2023-11-21T08:27:54;6.05;;;4.63;;
74344;SDS011;62776;50.518;6.732;2023-11-21T08:30:44;5.68;;;4.80;;
74344;SDS011;62776;50.518;6.732;2023-11-21T08:33:32;6.22;;;5.05;;
74344;SDS011;62776;50.518;6.732;2023-11-21T08:36:18;6.13;;;4.65;;
74344;SDS011;62776;50.518;6.732;2023-11-21T08:39:04;7.82;;;5.22;;
74344;SDS011;62776;50.518;6.732;2023-11-21T08:41:59;6.82;;;5.18;;
74344;SDS011;62776;50.518;6.732;2023-11-21T08:44:54;6.60;;;4.75;;
74344;SDS011;62776;50.518;6.732;2023-11-21T08:47:45;6.63;;;5.20;;
74344;SDS011;62776;50.518;6.732;2023-11-21T08:50:31;7.22;;;5.18;;
74344;SDS011;62776;50.518;6.732;2023-11-21T08:53:21;12.60;;;6.00;;
74344;SDS011;62776;50.518;6.732;2023-11-21T08:56:08;7.00;;;5.25;;
74344;SDS011;62776;50.518;6.732;2023-11-21T08:58:58;8.45;;;5.88;;
74344;SDS011;62776;50.518;6.732;2023-11-21T09:01:47;6.80;;;5.78;;
74344;SDS011;62776;50.518;6.732;2023-11-21T09:04:34;6.32;;;5.75;;
74344;SDS011;62776;50.518;6.732;2023-11-21T09:07:21;6.13;;;5.05;;
74344;SDS011;62776;50.518;6.732;2023-11-21T09:10:07;11.45;;;6.35;;
74344;SDS011;62776;50.518;6.732;2023-11-21T09:12:54;10.18;;;5.93;;
74344;SDS011;62776;50.518;6.732;2023-11-21T09:15:44;6.53;;;4.97;;
74344;SDS011;62776;50.518;6.732;2023-11-21T09:18:31;6.35;;;4.68;;
74344;SDS011;62776;50.518;6.732;2023-11-21T09:21:17;6.85;;;5.35;;
74344;SDS011;62776;50.518;6.732;2023-11-21T09:24:05;6.45;;;5.45;;
74344;SDS011;62776;50.518;6.732;2023-11-21T09:26:54;6.40;;;5.80;;
74344;SDS011;62776;50.518;6.732;2023-11-21T09:29:43;6.78;;;4.53;;
74344;SDS011;62776;50.518;6.732;2023-11-21T09:32:33;6.05;;;4.90;;
74344;SDS011;62776;50.518;6.732;2023-11-21T09:35:22;5.90;;;5.05;;
74344;SDS011;62776;50.518;6.732;2023-11-21T09:38:09;7.85;;;5.72;;
74344;SDS011;62776;50.518;6.732;2023-11-21T09:40:59;4.60;;;4.20;;
74344;SDS011;62776;50.518;6.732;2023-11-21T09:43:46;5.50;;;4.53;;
74344;SDS011;62776;50.518;6.732;2023-11-21T09:46:37;6.60;;;4.32;;
74344;SDS011;62776;50.518;6.732;2023-11-21T09:49:27;4.15;;;3.72;;
74344;SDS011;62776;50.518;6.732;2023-11-21T09:52:22;4.05;;;3.65;;
74344;SDS011;62776;50.518;6.732;2023-11-21T09:55:12;5.15;;;3.53;;
74344;SDS011;62776;50.518;6.732;2023-11-21T09:58:04;3.92;;;3.63;;
74344;SDS011;62776;50.518;6.732;2023-11-21T10:00:53;4.25;;;3.85;;
74344;SDS011;62776;50.518;6.732;2023-11-21T10:03:42;4.53;;;3.70;;
74344;SDS011;62776;50.518;6.732;2023-11-21T10:06:29;4.03;;;3.63;;
74344;SDS011;62776;50.518;6.732;2023-11-21T10:09:17;4.93;;;3.83;;
74344;SDS011;62776;50.518;6.732;2023-11-21T10:12:05;6.13;;;4.00;;
74344;SDS011;62776;50.518;6.732;2023-11-21T10:14:53;4.32;;;3.92;;
74344;SDS011;62776;50.518;6.732;2023-11-21T10:17:42;3.08;;;2.75;;
74344;SDS011;62776;50.518;6.732;2023-11-21T10:20:31;3.72;;;3.33;;
74344;SDS011;62776;50.518;6.732;2023-11-21T10:23:23;5.45;;;3.53;;
74344;SDS011;62776;50.518;6.732;2023-11-21T10:26:11;3.85;;;3.00;;
74344;SDS011;62776;50.518;6.732;2023-11-21T10:29:02;3.33;;;2.97;;
74344;SDS011;62776;50.518;6.732;2023-11-21T10:31:51;4.00;;;3.30;;
74344;SDS011;62776;50.518;6.732;2023-11-21T10:34:40;4.97;;;3.50;;
74344;SDS011;62776;50.518;6.732;2023-11-21T10:37:26;3.85;;;3.53;;
74344;SDS011;62776;50.518;6.732;2023-11-21T10:40:15;3.33;;;3.03;;
74344;SDS011;62776;50.518;6.732;2023-11-21T10:43:08;4.80;;;3.10;;
74344;SDS011;62776;50.518;6.732;2023-11-21T10:45:57;3.28;;;2.97;;
74344;SDS011;62776;50.518;6.732;2023-11-21T10:48:50;4.22;;;2.83;;
74344;SDS011;62776;50.518;6.732;2023-11-21T10:51:40;3.47;;;2.70;;
74344;SDS011;62776;50.518;6.732;2023-11-21T10:54:30;3.30;;;3.00;;
74344;SDS011;62776;50.518;6.732;2023-11-21T10:57:21;2.60;;;2.40;;
74344;SDS011;62776;50.518;6.732;2023-11-21T11:00:09;3.80;;;2.53;;
74344;SDS011;62776;50.518;6.732;2023-11-21T11:02:58;4.35;;;3.03;;
74344;SDS011;62776;50.518;6.732;2023-11-21T11:05:51;2.35;;;2.15;;
74344;SDS011;62776;50.518;6.732;2023-11-21T11:08:39;2.65;;;2.42;;
74344;SDS011;62776;50.518;6.732;2023-11-21T11:11:28;2.63;;;2.10;;
74344;SDS011;62776;50.518;6.732;2023-11-21T11:14:16;3.17;;;2.80;;
74344;SDS011;62776;50.518;6.732;2023-11-21T11:17:04;3.35;;;2.58;;
74344;SDS011;62776;50.518;6.732;2023-11-21T11:19:53;4.88;;;3.00;;
74344;SDS011;62776;50.518;6.732;2023-11-21T11:22:48;5.72;;;2.85;;
74344;SDS011;62776;50.518;6.732;2023-11-21T11:28:47;4.22;;;3.22;;
74344;SDS011;62776;50.518;6.732;2023-11-21T11:34:30;3.63;;;2.80;;
74344;SDS011;62776;50.518;6.732;2023-11-21T11:40:10;5.15;;;3.10;;
74344;SDS011;62776;50.518;6.732;2023-11-21T11:42:57;5.75;;;3.40;;
74344;SDS011;62776;50.518;6.732;2023-11-21T11:45:47;3.33;;;2.92;;
74344;SDS011;62776;50.518;6.732;2023-11-21T11:48:38;2.75;;;2.55;;
74344;SDS011;62776;50.518;6.732;2023-11-21T11:51:25;4.07;;;2.85;;
74344;SDS011;62776;50.518;6.732;2023-11-21T11:54:11;2.95;;;2.33;;
74344;SDS011;62776;50.518;6.732;2023-11-21T11:56:58;4.20;;;3.03;;
74344;SDS011;62776;50.518;6.732;2023-11-21T12:03:10;4.15;;;2.22;;
74344;SDS011;62776;50.518;6.732;2023-11-21T12:05:56;3.03;;;2.50;;
74344;SDS011;62776;50.518;6.732;2023-11-21T12:08:43;3.47;;;1.90;;
74344;SDS011;62776;50.518;6.732;2023-11-21T12:11:31;3.38;;;2.72;;
74344;SDS011;62776;50.518;6.732;2023-11-21T12:14:17;5.38;;;2.95;;
74344;SDS011;62776;50.518;6.732;2023-11-21T12:17:04;3.55;;;2.63;;
74344;SDS011;62776;50.518;6.732;2023-11-21T12:19:51;3.72;;;2.80;;
74344;SDS011;62776;50.518;6.732;2023-11-21T12:22:37;3.58;;;2.80;;
74344;SDS011;62776;50.518;6.732;2023-11-21T12:25:25;5.10;;;3.20;;
74344;SDS011;62776;50.518;6.732;2023-11-21T12:28:19;2.78;;;2.47;;
74344;SDS011;62776;50.518;6.732;2023-11-21T12:31:08;4.18;;;3.45;;
74344;SDS011;62776;50.518;6.732;2023-11-21T12:33:54;5.57;;;3.40;;
74344;SDS011;62776;50.518;6.732;2023-11-21T12:36:42;5.07;;;3.65;;
74344;SDS011;62776;50.518;6.732;2023-11-21T12:39:33;5.07;;;4.25;;
74344;SDS011;62776;50.518;6.732;2023-11-21T12:42:19;4.25;;;3.80;;
74344;SDS011;62776;50.518;6.732;2023-11-21T12:45:09;7.63;;;3.95;;
74344;SDS011;62776;50.518;6.732;2023-11-21T12:48:07;5.38;;;3.88;;
74344;SDS011;62776;50.518;6.732;2023-11-21T12:50:54;5.28;;;4.00;;
74344;SDS011;62776;50.518;6.732;2023-11-21T12:53:42;7.10;;;4.57;;
74344;SDS011;62776;50.518;6.732;2023-11-21T12:56:29;5.63;;;4.35;;
74344;SDS011;62776;50.518;6.732;2023-11-21T12:59:15;5.22;;;4.70;;
74344;SDS011;62776;50.518;6.732;2023-11-21T13:02:04;7.90;;;4.55;;
74344;SDS011;62776;50.518;6.732;2023-11-21T13:04:52;6.70;;;4.43;;
74344;SDS011;62776;50.518;6.732;2023-11-21T13:07:42;4.75;;;3.83;;
74344;SDS011;62776;50.518;6.732;2023-11-21T13:10:32;6.97;;;5.13;;
74344;SDS011;62776;50.518;6.732;2023-11-21T13:13:21;6.55;;;3.92;;
74344;SDS011;62776;50.518;6.732;2023-11-21T13:16:09;5.22;;;3.92;;
74344;SDS011;62776;50.518;6.732;2023-11-21T13:18:56;5.97;;;3.83;;
74344;SDS011;62776;50.518;6.732;2023-11-21T13:21:45;6.13;;;4.40;;
74344;SDS011;62776;50.518;6.732;2023-11-21T13:24:31;5.18;;;3.40;;
74344;SDS011;62776;50.518;6.732;2023-11-21T13:27:18;4.35;;;3.63;;
74344;SDS011;62776;50.518;6.732;2023-11-21T13:30:04;3.78;;;3.38;;
74344;SDS011;62776;50.518;6.732;2023-11-21T13:32:53;4.38;;;2.90;;
74344;SDS011;62776;50.518;6.732;2023-11-21T13:35:47;5.95;;;3.05;;
74344;SDS011;62776;50.518;6.732;2023-11-21T13:38:36;5.47;;;3.05;;
74344;SDS011;62776;50.518;6.732;2023-11-21T13:41:32;4.97;;;2.75;;
74344;SDS011;62776;50.518;6.732;2023-11-21T13:44:19;3.97;;;3.00;;
74344;SDS011;62776;50.518;6.732;2023-11-21T13:47:21;4.35;;;2.90;;
74344;SDS011;62776;50.518;6.732;2023-11-21T13:50:10;4.25;;;2.85;;
74344;SDS011;62776;50.518;6.732;2023-11-21T13:53:02;4.30;;;3.10;;
74344;SDS011;62776;50.518;6.732;2023-11-21T13:56:07;4.85;;;3.08;;
74344;SDS011;62776;50.518;6.732;2023-11-21T13:58:54;5.93;;;2.88;;
74344;SDS011;62776;50.518;6.732;2023-11-21T14:01:41;4.43;;;3.50;;
74344;SDS011;62776;50.518;6.732;2023-11-21T14:04:40;5.13;;;3.75;;
74344;SDS011;62776;50.518;6.732;2023-11-21T14:07:39;8.13;;;4.95;;
74344;SDS011;62776;50.518;6.732;2023-11-21T14:10:32;5.03;;;3.92;;
74344;SDS011;62776;50.518;6.732;2023-11-21T14:13:28;6.38;;;3.95;;
74344;SDS011;62776;50.518;6.732;2023-11-21T14:16:15;6.82;;;3.47;;
74344;SDS011;62776;50.518;6.732;2023-11-21T14:19:01;6.78;;;4.47;;
74344;SDS011;62776;50.518;6.732;2023-11-21T14:22:00;5.13;;;3.40;;
74344;SDS011;62776;50.518;6.732;2023-11-21T14:24:46;7.65;;;3.78;;
74344;SDS011;62776;50.518;6.732;2023-11-21T14:27:35;7.22;;;4.47;;
74344;SDS011;62776;50.518;6.732;2023-11-21T14:30:21;8.15;;;3.95;;
74344;SDS011;62776;50.518;6.732;2023-11-21T14:33:14;6.05;;;4.20;;
74344;SDS011;62776;50.518;6.732;2023-11-21T14:36:01;6.85;;;4.22;;
74344;SDS011;62776;50.518;6.732;2023-11-21T14:38:47;8.48;;;4.00;;
74344;SDS011;62776;50.518;6.732;2023-11-21T14:41:34;5.07;;;4.13;;
74344;SDS011;62776;50.518;6.732;2023-11-21T14:44:22;8.02;;;4.65;;
74344;SDS011;62776;50.518;6.732;2023-11-21T14:47:11;7.15;;;4.70;;
74344;SDS011;62776;50.518;6.732;2023-11-21T14:50:00;6.53;;;4.03;;
74344;SDS011;62776;50.518;6.732;2023-11-21T14:53:07;7.15;;;4.72;;
74344;SDS011;62776;50.518;6.732;2023-11-21T14:55:54;7.80;;;4.57;;
74344;SDS011;62776;50.518;6.732;2023-11-21T14:58:44;12.82;;;6.22;;
74344;SDS011;62776;50.518;6.732;2023-11-21T15:01:31;6.93;;;4.88;;
74344;SDS011;62776;50.518;6.732;2023-11-21T15:04:37;10.00;;;5.55;;
74344;SDS011;62776;50.518;6.732;2023-11-21T15:07:24;9.25;;;4.63;;
74344;SDS011;62776;50.518;6.732;2023-11-21T15:10:12;7.20;;;5.18;;
74344;SDS011;62776;50.518;6.732;2023-11-21T15:13:02;7.00;;;5.00;;
74344;SDS011;62776;50.518;6.732;2023-11-21T15:15:49;7.97;;;5.75;;
74344;SDS011;62776;50.518;6.732;2023-11-21T15:18:38;8.55;;;4.57;;
74344;SDS011;62776;50.518;6.732;2023-11-21T15:21:27;7.03;;;5.25;;
74344;SDS011;62776;50.518;6.732;2023-11-21T15:24:14;7.10;;;4.80;;
74344;SDS011;62776;50.518;6.732;2023-11-21T15:27:01;8.27;;;5.55;;
74344;SDS011;62776;50.518;6.732;2023-11-21T15:29:48;9.63;;;5.03;;
74344;SDS011;62776;50.518;6.732;2023-11-21T15:32:35;12.85;;;5.15;;
74344;SDS011;62776;50.518;6.732;2023-11-21T15:35:21;9.93;;;5.72;;
74344;SDS011;62776;50.518;6.732;2023-11-21T15:38:13;6.82;;;4.72;;
74344;SDS011;62776;50.518;6.732;2023-11-21T15:41:00;9.00;;;5.45;;
74344;SDS011;62776;50.518;6.732;2023-11-21T15:43:47;7.15;;;4.45;;
74344;SDS011;62776;50.518;6.732;2023-11-21T15:46:35;9.50;;;5.68;;
74344;SDS011;62776;50.518;6.732;2023-11-21T15:49:22;10.65;;;5.75;;
74344;SDS011;62776;50.518;6.732;2023-11-21T15:52:09;9.90;;;6.53;;
74344;SDS011;62776;50.518;6.732;2023-11-21T15:54:55;7.38;;;4.70;;
74344;SDS011;62776;50.518;6.732;2023-11-21T15:57:43;6.50;;;5.25;;
74344;SDS011;62776;50.518;6.732;2023-11-21T16:00:30;7.97;;;4.88;;
74344;SDS011;62776;50.518;6.732;2023-11-21T16:03:17;8.75;;;5.72;;
74344;SDS011;62776;50.518;6.732;2023-11-21T16:06:03;8.65;;;4.72;;
74344;SDS011;62776;50.518;6.732;2023-11-21T16:08:50;8.00;;;5.43;;
74344;SDS011;62776;50.518;6.732;2023-11-21T16:11:36;9.85;;;5.78;;
74344;SDS011;62776;50.518;6.732;2023-11-21T16:14:22;8.90;;;5.53;;
74344;SDS011;62776;50.518;6.732;2023-11-21T16:17:14;8.87;;;5.37;;
74344;SDS011;62776;50.518;6.732;2023-11-21T16:20:06;13.27;;;6.88;;
74344;SDS011;62776;50.518;6.732;2023-11-21T16:22:58;9.23;;;6.35;;
74344;SDS011;62776;50.518;6.732;2023-11-21T16:25:45;8.93;;;6.45;;
74344;SDS011;62776;50.518;6.732;2023-11-21T16:28:39;11.77;;;6.38;;
74344;SDS011;62776;50.518;6.732;2023-11-21T16:31:26;7.93;;;6.65;;
74344;SDS011;62776;50.518;6.732;2023-11-21T16:34:14;14.18;;;7.53;;
74344;SDS011;62776;50.518;6.732;2023-11-21T16:37:08;11.30;;;6.97;;
74344;SDS011;62776;50.518;6.732;2023-11-21T16:39:54;7.88;;;6.25;;
74344;SDS011;62776;50.518;6.732;2023-11-21T16:42:43;10.95;;;6.95;;
74344;SDS011;62776;50.518;6.732;2023-11-21T16:45:29;8.45;;;7.00;;
74344;SDS011;62776;50.518;6.732;2023-11-21T16:48:15;11.75;;;7.95;;
74344;SDS011;62776;50.518;6.732;2023-11-21T16:51:01;14.35;;;8.05;;
74344;SDS011;62776;50.518;6.732;2023-11-21T16:53:48;11.10;;;8.60;;
74344;SDS011;62776;50.518;6.732;2023-11-21T16:56:36;13.55;;;9.18;;
74344;SDS011;62776;50.518;6.732;2023-11-21T16:59:25;12.93;;;8.25;;
74344;SDS011;62776;50.518;6.732;2023-11-21T17:02:11;11.90;;;7.97;;
74344;SDS011;62776;50.518;6.732;2023-11-21T17:04:57;12.77;;;7.95;;
74344;SDS011;62776;50.518;6.732;2023-11-21T17:07:44;14.82;;;8.45;;
74344;SDS011;62776;50.518;6.732;2023-11-21T17:10:33;11.82;;;8.50;;
74344;SDS011;62776;50.518;6.732;2023-11-21T17:13:19;15.25;;;9.13;;
74344;SDS011;62776;50.518;6.732;2023-11-21T17:16:06;12.65;;;7.63;;
74344;SDS011;62776;50.518;6.732;2023-11-21T17:18:54;14.70;;;9.10;;
74344;SDS011;62776;50.518;6.732;2023-11-21T17:21:43;10.30;;;5.97;;
74344;SDS011;62776;50.518;6.732;2023-11-21T17:24:31;8.77;;;5.30;;
74344;SDS011;62776;50.518;6.732;2023-11-21T17:27:21;5.00;;;4.40;;